Cincinnati, OH

11:55 AM EDT on October 24, 2014 (GMT -0400)
Newport Aquarium | Change Station
CLOSE
Current Station
Personal Weather Station
Location: Newport, KY
Elevation: 499 ft
Nearby Weather Stations

Elev 499 ft 39.09 °N, 84.50 °W | Updated 41 seconds ago

Clear
Clear
59.3 °F
Feels Like 59.3 °F
N
0.0
Wind Variable Wind from SSE
Gusts 6.0 mph

Today
High -- | Low -- °F
--% Chance of Precip.
Yesterday
High -- | Low -- °F
Precip. -- in
7:56 AM 6:46 PM
New Moon, 1% visible
Pressure 30.15 in
Visibility 9.0 miles
Clouds Clear
Dew Point 44 °F
Humidity 56%
Rainfall 0.00 in
Snow Depth Not available.
UV 3 out of 12
Pollen .90 out of 12
Ozone Good
PM2.5 Moderate
Flu Activity Sporadic
METAR KLUK 241453Z 00000KT 9SM CLR 11/08 A3015 RMK AO2 SLP209 T01110083 50001

More Conditions Fewer Conditions

Pressure 30.15 in
Visibility 9.0 miles
Clouds Clear
Dew Point 44 °F
Humidity 56%
Rainfall 0.00 in
Snow Depth Not available.
UV 3 out of 12
Pollen .90 out of 12
Ozone Good
PM2.5 Moderate
Flu Activity Sporadic
METAR KLUK 241453Z 00000KT 9SM CLR 11/08 A3015 RMK AO2 SLP209 T01110083 50001

More Conditions Fewer Conditions

10-Day Weather Forecast

Almanac

Astronomy

Oct. 24, 2014 Rise Set
Actual Time 7:56 AM EDT 6:46 PM EDT
Civil Twilight 7:29 AM EDT 7:14 PM EDT
Nautical Twilight 6:58 AM EDT 7:45 PM EDT
Astronomical Twilight 6:27 AM EDT 8:16 PM EDT
Moon 8:34 AM EDT 7:26 PM EDT
Length of Visible Light 11h 44m
Length of Day
10h 49m
Tomorrow will be 2m 21s shorter.
New Moon, 1% of the Moon is Illuminated
Today
New Moon
Oct 30
First Quarter
Nov 6
Full
Nov 14
Last Quarter
Nov 22
New

Today's Extremes

State Highs State Lows

Community

WunderPhotos

Upload Photos

1,764,590 photos uploaded!

WunderBlogs® & News

Nearby

Air Quality

  Air Quality AQ Index Pollutant
Yesterday Good
PM10
Yesterday Good
OZONE
Current Moderate
PM2.5
Current Good
OZONE
Friday Moderate
PM2.5
Friday Good
OZONE

Snow Depth

Station Depth Elevation
No new snow has been reported.

Earthquake Activity

City Distance Mag. Time & Date
No recent earthquake activity has been reported nearby.
Minimum magnitude displayed is 2.5.

Coastal Water Temperatures

Place Temperature
No Stations Reporting

Nearby Weather Stations